Nearby METAR Reports

 

EGEO - Oban, United Kingdom
Distance from station: SSW 18mi, 30km
Updated: 22/09/2017 13:20
Nearby showers, Overcast
Nearby showers, Overcast
 Wind from SE
Wind: SE 12 mph , 19 km/h
Temperature: 12°C
Dew Point: 10°C
Humidity: 88%
Barometer: 1011 hPa
Summary: Nearby Showers
Clouds: Overcast
Visibility: 5 miles , 8 km
Cloud details: Few Clouds 579 m
Partly cloudy 792 m
Overcast 1097 m
2017/09/22 12:20 EGEO 221220Z 13010KT 090V170 8000 VCSH FEW019 SCT026 OVC036 12/10 Q1011
EGPU - Tiree, United Kingdom
Distance from station: WSW 64mi, 103km
Updated: 22/09/2017 14:20
Light rain, Mostly cloudy
Light rain, Mostly cloudy
 Wind from S
Wind: S 23 mph , 37 km/h
Temperature: 14°C
Dew Point: 13°C
Humidity: 94%
Barometer: 1007 hPa
Summary: Light rain
Clouds: Mostly cloudy
Visibility: 3 miles , 4 km
Cloud details: Mostly cloudy 183 m
Mostly cloudy 366 m
Mostly cloudy 488 m
2017/09/22 13:20 EGPU 221320Z 17020KT 4200 -RA BKN006 BKN012 BKN016 14/13 Q1007
EGPF - Glasgow, United Kingdom
Distance from station: SSE 66mi, 107km
Updated: 22/09/2017 14:20
Thunderstorm
Thunderstorm
 Wind from SSE
Wind: SSE 15 mph , 24 km/h
Temperature: 14°C
Dew Point: 10°C
Humidity: 77%
Barometer: 1012 hPa
Clouds: Thunderstorm
Visibility: 4 miles , 7 km
Cloud details: Partly cloudy 884 m
Mostly cloudy 1067 m
2017/09/22 13:20 EGPF 221320Z AUTO 15013KT 110V180 7000 SCT029/// BKN035/// //////TCU 14/10 Q1012
 
EGPE - Inverness, United Kingdom
Distance from station: NE 71mi, 114km
Updated: 22/09/2017 14:20
Partly cloudy
Partly cloudy
 Wind from SE
Wind: SE 6 mph , 9 km/h
Clouds: Partly cloudy
Visibility: 6 miles , 10 km
Cloud details: Few Clouds 671 m
Partly cloudy 1097 m
2017/09/22 13:20 EGPE 221320Z 13005KT 090V170 9999 FEW022 SCT036 14/0
EGPI - Islay/Port Ellen, United Kingdom
Distance from station: SSW 81mi, 131km
Updated: 22/09/2017 13:50
Mostly cloudy
Mostly cloudy
 Wind from SSE
Wind: SSE 24 mph , 39 km/h
Temperature: 14°C
Dew Point: 13°C
Humidity: 94%
Barometer: 1008 hPa
Clouds: Mostly cloudy
Visibility: 6 miles , 10 km
Cloud details: Few Clouds 274 m
Mostly cloudy 640 m
2017/09/22 12:50 EGPI 221250Z AUTO 15021KT 120V180 9999 FEW009/// BKN021/// 14/13 Q1008 RERA
EGPN - Dundee/Riverside, United Kingdom
Distance from station: E 86mi, 138km
Updated: 22/09/2017 14:20
Few Clouds
Few Clouds
 Wind from SE
Wind: SE 9 mph , 15 km/h
Temperature: 14°C
Dew Point: 10°C
Humidity: 77%
Barometer: 1015 hPa
Clouds: Few Clouds
Visibility: 6 miles , 10 km
Cloud details: Few Clouds 914 m
2017/09/22 13:20 EGPN 221320Z 13008KT 9999 FEW030 14/10 Q1015
 
EGPK - Prestwick, United Kingdom
Distance from station: SSE 88mi, 141km
Updated: 22/09/2017 14:20
Partly cloudy
Partly cloudy
 Wind from SSE
Wind: SSE 22 mph , 35 km/h
Temperature: 14°C
Dew Point: 10°C
Humidity: 77%
Barometer: 1012 hPa
Clouds: Partly cloudy
Visibility: 6 miles , 10 km
Cloud details: Few Clouds 335 m
Partly cloudy 701 m
2017/09/22 13:20 EGPK 221320Z 16019KT 9999 FEW011 SCT023 14/10 Q1012
EGPH - Edinburgh, United Kingdom
Distance from station: SE 89mi, 143km
Updated: 22/09/2017 14:20
Few Clouds
Few Clouds
 Wind from SSE
Wind: SSE 13 mph , 20 km/h
Temperature: 14°C
Dew Point: 8°C
Humidity: 67%
Barometer: 1014 hPa
Clouds: Few Clouds
Visibility: 6 miles , 10 km
Cloud details: Few Clouds 914 m
2017/09/22 13:20 EGPH 221320Z 15011KT 9999 FEW030 14/08 Q1014
EGQK - RAF Kinloss, United Kingdom
Distance from station: NE 90mi, 144km
Updated: 22/09/2017 13:50
Mostly cloudy
Mostly cloudy
 Wind from SE
Wind: SE 10 mph , 17 km/h
Temperature: 13°C
Dew Point: 9°C
Humidity: 77%
Barometer: 1014 hPa
Clouds: Mostly cloudy
Visibility: 6 miles , 10 km
Cloud details: Mostly cloudy 2743 m
2017/09/22 12:50 EGQK 221250Z AUTO 13009KT 9999 BKN090/// 13/09 Q1014
 
EGEC - Campbeltown, United Kingdom
Distance from station: S 90mi, 145km
Updated: 22/09/2017 13:50
Light rain, Mostly cloudy
Light rain, Mostly cloudy
 Wind from SSE
Wind: SSE 25 mph , 41 km/h
Temperature: 14°C
Dew Point: 13°C
Humidity: 94%
Barometer: 1009 hPa
Summary: Light rain
Clouds: Mostly cloudy
Visibility: 5 miles , 8 km
Cloud details: Mostly cloudy 213 m
Mostly cloudy 427 m
2017/09/22 12:50 EGEC 221250Z 16022KT 8000 -RA BKN007 BKN014 14/13 Q1009
EGQA - Tain Range, United Kingdom
Distance from station: NNE 91mi, 146km
Updated: 22/09/2017 10:50
NOT Current
Partly cloudy
Partly cloudy
 Wind from E
Wind: E 6 mph , 9 km/h
Clouds: Partly cloudy
Visibility: 6 miles , 10 km
Cloud details: Few Clouds 671 m
Partly cloudy 1372 m
2017/09/22 09:50 EGQA 220950Z 10005KT 9999 FEW022 SCT045 10/// Q1015 BLU
EGQL - RAF Leuchars, United Kingdom
Distance from station: ESE 93mi, 149km
Updated: 22/09/2017 13:47
Overcast
Overcast
 Wind from SSE
Wind: SSE 13 mph , 20 km/h
Temperature: 14°C
Dew Point: 10°C
Humidity: 77%
Barometer: 1015 hPa
Clouds: Overcast
Visibility: 6 miles , 10 km
Cloud details: Few Clouds 914 m
Overcast 2134 m
2017/09/22 12:47 EGQL 221247Z 15011KT 9999 FEW030 OVC070 14/10 Q1015 BLU
 
EGPL - Benbecula, United Kingdom
Distance from station: WNW 96mi, 154km
Updated: 22/09/2017 14:20
Light rain, Showers, Mostly cloudy
Light rain, Showers, Mostly cloudy
 Wind from ESE
Wind: ESE 15 mph , 24 km/h
Temperature: 12°C
Dew Point: 11°C
Humidity: 94%
Barometer: 1009 hPa
Summary: Light rain, Showers
Clouds: Mostly cloudy
Visibility: 3 miles , 5 km
Cloud details: Few Clouds 122 m
Partly cloudy 183 m
Mostly cloudy 305 m
2017/09/22 13:20 EGPL 221320Z 12013KT 4500 -SHRA FEW004 SCT006 BKN010 12/11 Q1009
EGQS - RAF Lossiemouth, United Kingdom
Distance from station: NE 99mi, 160km
Updated: 22/09/2017 13:50
Mostly cloudy
Mostly cloudy
 Wind from SSE
Wind: SSE 10 mph , 17 km/h
Temperature: 13°C
Dew Point: 9°C
Humidity: 77%
Barometer: 1014 hPa
Clouds: Mostly cloudy
Visibility: 6 miles , 10 km
Cloud details: Few Clouds 1219 m
Partly cloudy 1829 m
Mostly cloudy 3048 m
2017/09/22 12:50 EGQS 221250Z 15009KT 9999 FEW040 SCT060 BKN100 13/09 Q1014 BLU NOSIG
EGPO - Stornoway, United Kingdom
Distance from station: NNW 111mi, 179km
Updated: 22/09/2017 14:20
Light rain, Mostly cloudy
Light rain, Mostly cloudy
 Wind from ESE
Wind: ESE 14 mph , 22 km/h
Temperature: 13°C
Dew Point: 9°C
Humidity: 77%
Barometer: 1011 hPa
Summary: Light rain
Clouds: Mostly cloudy
Visibility: 6 miles , 10 km
Cloud details: Few Clouds 671 m
Mostly cloudy 1372 m
2017/09/22 13:20 EGPO 221320Z 12012KT 9999 -RA FEW022 BKN045 13/09 Q1011
 
EGPD - Aberdeen/Dyce, United Kingdom
Distance from station: ENE 118mi, 190km
Updated: 22/09/2017 13:50
Partly cloudy
Partly cloudy
 Wind from SSE
Wind: SSE 15 mph , 24 km/h
Temperature: 14°C
Dew Point: 10°C
Humidity: 77%
Barometer: 1016 hPa
Clouds: Partly cloudy
Visibility: 6 miles , 10 km
Cloud details: Partly cloudy 579 m
2017/09/22 12:50 EGPD 221250Z AUTO 15013KT 9999 SCT019 14/10 Q1016 NOSIG
EGAE - Eglinton/Londond, United Kingdom
Distance from station: SSW 138mi, 222km
Updated: 22/09/2017 12:50
NOT Current
Partly cloudy
Partly cloudy
 Wind from S
Wind: S 15 mph , 24 km/h, Gust: 28 mph , 44 km/h
Temperature: 17°C
Dew Point: 13°C
Humidity: 77%
Barometer: 1006 hPa
Clouds: Partly cloudy
Visibility: 6 miles , 10 km
Cloud details: Partly cloudy 457 m
2017/09/22 11:50 EGAE 221150Z 18013G24KT 9999 SCT015 17/13 Q1006
EGPC - Wick, United Kingdom
Distance from station: NNE 144mi, 232km
Updated: 22/09/2017 14:20
Few Clouds
Few Clouds
 Wind from SE
Wind: SE 15 mph , 24 km/h
Temperature: 13°C
Dew Point: 10°C
Humidity: 82%
Barometer: 1015 hPa
Clouds: Few Clouds
Visibility: 6 miles , 10 km
Cloud details: Few Clouds 305 m
2017/09/22 13:20 EGPC 221320Z 14013KT 9999 FEW010 13/10 Q1015

Metar display script from Saratoga-Weather.org